sensor_id;sensor_type;location;lat;lon;timestamp;temperature;humidity
12276;DHT22;6200;48.144;11.424;2022-07-29T00:01:33;20.10;99.90
12276;DHT22;6200;48.144;11.424;2022-07-29T00:03:58;20.00;99.90
12276;DHT22;6200;48.144;11.424;2022-07-29T00:06:24;20.00;99.90
12276;DHT22;6200;48.144;11.424;2022-07-29T00:08:49;20.00;99.90
12276;DHT22;6200;48.144;11.424;2022-07-29T00:11:15;20.00;99.90
12276;DHT22;6200;48.144;11.424;2022-07-29T00:13:40;19.90;99.90
12276;DHT22;6200;48.144;11.424;2022-07-29T00:16:06;19.90;99.90
12276;DHT22;6200;48.144;11.424;2022-07-29T00:18:32;19.90;99.90
12276;DHT22;6200;48.144;11.424;2022-07-29T00:20:57;19.90;99.90
12276;DHT22;6200;48.144;11.424;2022-07-29T00:23:23;19.90;99.90
12276;DHT22;6200;48.144;11.424;2022-07-29T00:25:48;19.80;99.90
12276;DHT22;6200;48.144;11.424;2022-07-29T00:28:14;19.80;99.90
12276;DHT22;6200;48.144;11.424;2022-07-29T00:30:39;19.80;99.90
12276;DHT22;6200;48.144;11.424;2022-07-29T00:33:07;19.80;99.90
12276;DHT22;6200;48.144;11.424;2022-07-29T00:35:32;19.80;99.90
12276;DHT22;6200;48.144;11.424;2022-07-29T00:38:14;19.80;99.90
12276;DHT22;6200;48.144;11.424;2022-07-29T00:40:41;19.70;99.90
12276;DHT22;6200;48.144;11.424;2022-07-29T00:43:06;19.80;99.90
12276;DHT22;6200;48.144;11.424;2022-07-29T00:45:32;19.70;99.90
12276;DHT22;6200;48.144;11.424;2022-07-29T00:47:58;19.40;99.90
12276;DHT22;6200;48.144;11.424;2022-07-29T00:50:24;19.60;99.90
12276;DHT22;6200;48.144;11.424;2022-07-29T00:52:50;19.60;99.90
12276;DHT22;6200;48.144;11.424;2022-07-29T00:55:17;19.60;99.90
12276;DHT22;6200;48.144;11.424;2022-07-29T00:57:43;19.60;99.90
12276;DHT22;6200;48.144;11.424;2022-07-29T01:00:14;19.60;99.90
12276;DHT22;6200;48.144;11.424;2022-07-29T01:02:40;19.60;99.90
12276;DHT22;6200;48.144;11.424;2022-07-29T01:05:06;19.60;99.90
12276;DHT22;6200;48.144;11.424;2022-07-29T01:07:35;19.60;99.90
12276;DHT22;6200;48.144;11.424;2022-07-29T01:10:05;19.60;99.90
12276;DHT22;6200;48.144;11.424;2022-07-29T01:12:32;19.70;99.90
12276;DHT22;6200;48.144;11.424;2022-07-29T01:15:00;20.50;99.90
12276;DHT22;6200;48.144;11.424;2022-07-29T01:20:30;19.60;99.90
12276;DHT22;6200;48.144;11.424;2022-07-29T01:23:19;19.50;99.90
12276;DHT22;6200;48.144;11.424;2022-07-29T01:26:03;19.60;99.90
12276;DHT22;6200;48.144;11.424;2022-07-29T01:29:02;19.60;99.90
12276;DHT22;6200;48.144;11.424;2022-07-29T01:31:58;19.50;99.90
12276;DHT22;6200;48.144;11.424;2022-07-29T01:37:18;19.50;99.90
12276;DHT22;6200;48.144;11.424;2022-07-29T01:39:46;19.50;99.90
12276;DHT22;6200;48.144;11.424;2022-07-29T01:42:29;19.50;99.90
12276;DHT22;6200;48.144;11.424;2022-07-29T01:45:12;19.50;99.90
12276;DHT22;6200;48.144;11.424;2022-07-29T01:47:43;19.50;99.90
12276;DHT22;6200;48.144;11.424;2022-07-29T01:50:12;19.50;99.90
12276;DHT22;6200;48.144;11.424;2022-07-29T01:52:45;19.50;99.90
12276;DHT22;6200;48.144;11.424;2022-07-29T01:55:16;19.50;99.90
12276;DHT22;6200;48.144;11.424;2022-07-29T01:57:45;19.50;99.90
12276;DHT22;6200;48.144;11.424;2022-07-29T02:00:12;19.50;99.90
12276;DHT22;6200;48.144;11.424;2022-07-29T02:02:41;19.50;99.90
12276;DHT22;6200;48.144;11.424;2022-07-29T02:05:10;19.50;99.90
12276;DHT22;6200;48.144;11.424;2022-07-29T02:07:36;19.50;99.90
12276;DHT22;6200;48.144;11.424;2022-07-29T02:10:04;19.50;99.90
12276;DHT22;6200;48.144;11.424;2022-07-29T02:12:31;19.50;99.90
12276;DHT22;6200;48.144;11.424;2022-07-29T02:15:00;19.50;99.90
12276;DHT22;6200;48.144;11.424;2022-07-29T02:17:29;19.60;99.90
12276;DHT22;6200;48.144;11.424;2022-07-29T02:19:59;19.50;99.90
12276;DHT22;6200;48.144;11.424;2022-07-29T02:22:26;19.50;99.90
12276;DHT22;6200;48.144;11.424;2022-07-29T02:24:54;19.50;99.90
12276;DHT22;6200;48.144;11.424;2022-07-29T02:27:20;19.40;99.90
12276;DHT22;6200;48.144;11.424;2022-07-29T02:29:49;19.40;99.90
12276;DHT22;6200;48.144;11.424;2022-07-29T02:32:16;19.30;99.90
12276;DHT22;6200;48.144;11.424;2022-07-29T02:34:43;19.30;99.90
12276;DHT22;6200;48.144;11.424;2022-07-29T02:37:10;19.30;99.90
12276;DHT22;6200;48.144;11.424;2022-07-29T02:39:37;19.30;99.90
12276;DHT22;6200;48.144;11.424;2022-07-29T02:42:07;19.20;99.90
12276;DHT22;6200;48.144;11.424;2022-07-29T02:44:35;19.20;99.90
12276;DHT22;6200;48.144;11.424;2022-07-29T02:47:18;19.10;99.90
12276;DHT22;6200;48.144;11.424;2022-07-29T02:50:02;19.10;99.90
12276;DHT22;6200;48.144;11.424;2022-07-29T02:52:44;19.10;99.90
12276;DHT22;6200;48.144;11.424;2022-07-29T02:55:30;19.10;99.90
12276;DHT22;6200;48.144;11.424;2022-07-29T03:00:41;18.90;99.90
12276;DHT22;6200;48.144;11.424;2022-07-29T03:03:11;18.90;99.90
12276;DHT22;6200;48.144;11.424;2022-07-29T03:05:37;18.90;99.90
12276;DHT22;6200;48.144;11.424;2022-07-29T03:08:05;18.90;99.90
12276;DHT22;6200;48.144;11.424;2022-07-29T03:10:32;18.90;99.90
12276;DHT22;6200;48.144;11.424;2022-07-29T03:12:58;18.80;99.90
12276;DHT22;6200;48.144;11.424;2022-07-29T03:15:24;18.70;99.90
12276;DHT22;6200;48.144;11.424;2022-07-29T03:17:51;18.60;99.90
12276;DHT22;6200;48.144;11.424;2022-07-29T03:20:17;18.60;99.90
12276;DHT22;6200;48.144;11.424;2022-07-29T03:22:44;18.50;99.90
12276;DHT22;6200;48.144;11.424;2022-07-29T03:25:16;18.50;99.90
12276;DHT22;6200;48.144;11.424;2022-07-29T03:27:42;18.50;99.90
12276;DHT22;6200;48.144;11.424;2022-07-29T03:30:09;18.50;99.90
12276;DHT22;6200;48.144;11.424;2022-07-29T03:32:35;18.40;99.90
12276;DHT22;6200;48.144;11.424;2022-07-29T03:35:01;18.40;99.90
12276;DHT22;6200;48.144;11.424;2022-07-29T03:37:27;18.30;99.90
12276;DHT22;6200;48.144;11.424;2022-07-29T03:39:55;18.30;99.90
12276;DHT22;6200;48.144;11.424;2022-07-29T03:42:28;18.30;99.90
12276;DHT22;6200;48.144;11.424;2022-07-29T03:44:56;18.30;99.90
12276;DHT22;6200;48.144;11.424;2022-07-29T03:47:25;18.20;99.90
12276;DHT22;6200;48.144;11.424;2022-07-29T03:49:55;18.30;99.90
12276;DHT22;6200;48.144;11.424;2022-07-29T03:52:22;18.20;99.90
12276;DHT22;6200;48.144;11.424;2022-07-29T03:54:48;18.20;99.90
12276;DHT22;6200;48.144;11.424;2022-07-29T03:57:15;18.10;99.90
12276;DHT22;6200;48.144;11.424;2022-07-29T03:59:41;18.20;99.90
12276;DHT22;6200;48.144;11.424;2022-07-29T04:02:09;18.10;99.90
12276;DHT22;6200;48.144;11.424;2022-07-29T04:04:36;18.20;99.90
12276;DHT22;6200;48.144;11.424;2022-07-29T04:07:02;18.20;99.90
12276;DHT22;6200;48.144;11.424;2022-07-29T04:09:28;18.20;99.90
12276;DHT22;6200;48.144;11.424;2022-07-29T04:11:53;18.30;99.90
12276;DHT22;6200;48.144;11.424;2022-07-29T04:14:19;18.30;99.90
12276;DHT22;6200;48.144;11.424;2022-07-29T04:16:46;18.40;99.90
12276;DHT22;6200;48.144;11.424;2022-07-29T04:19:11;18.30;99.90
12276;DHT22;6200;48.144;11.424;2022-07-29T04:21:40;18.40;99.90
12276;DHT22;6200;48.144;11.424;2022-07-29T04:24:07;17.60;99.90
12276;DHT22;6200;48.144;11.424;2022-07-29T04:26:33;18.40;99.90
12276;DHT22;6200;48.144;11.424;2022-07-29T04:28:59;18.50;99.90
12276;DHT22;6200;48.144;11.424;2022-07-29T04:31:24;18.50;99.90
12276;DHT22;6200;48.144;11.424;2022-07-29T04:33:50;18.60;99.90
12276;DHT22;6200;48.144;11.424;2022-07-29T04:36:15;18.70;99.90
12276;DHT22;6200;48.144;11.424;2022-07-29T04:38:41;18.70;99.90
12276;DHT22;6200;48.144;11.424;2022-07-29T04:41:06;18.70;99.90
12276;DHT22;6200;48.144;11.424;2022-07-29T04:43:34;18.80;99.90
12276;DHT22;6200;48.144;11.424;2022-07-29T04:45:59;18.80;99.90
12276;DHT22;6200;48.144;11.424;2022-07-29T04:48:25;18.80;99.90
12276;DHT22;6200;48.144;11.424;2022-07-29T04:50:51;18.80;99.90
12276;DHT22;6200;48.144;11.424;2022-07-29T04:53:17;18.90;99.90
12276;DHT22;6200;48.144;11.424;2022-07-29T04:55:42;18.90;99.90
12276;DHT22;6200;48.144;11.424;2022-07-29T04:58:08;18.90;99.90
12276;DHT22;6200;48.144;11.424;2022-07-29T05:00:33;18.80;99.90
12276;DHT22;6200;48.144;11.424;2022-07-29T05:02:59;18.90;99.90
12276;DHT22;6200;48.144;11.424;2022-07-29T05:05:25;18.80;99.90
12276;DHT22;6200;48.144;11.424;2022-07-29T05:07:50;18.80;99.90
12276;DHT22;6200;48.144;11.424;2022-07-29T05:10:16;18.90;99.90
12276;DHT22;6200;48.144;11.424;2022-07-29T05:12:42;19.00;99.90
12276;DHT22;6200;48.144;11.424;2022-07-29T05:15:07;19.00;99.90
12276;DHT22;6200;48.144;11.424;2022-07-29T05:17:33;19.00;99.90
12276;DHT22;6200;48.144;11.424;2022-07-29T05:19:59;19.00;99.90
12276;DHT22;6200;48.144;11.424;2022-07-29T05:22:24;19.00;99.90
12276;DHT22;6200;48.144;11.424;2022-07-29T05:24:50;19.00;99.90
12276;DHT22;6200;48.144;11.424;2022-07-29T05:27:15;19.00;99.90
12276;DHT22;6200;48.144;11.424;2022-07-29T05:29:41;18.90;99.90
12276;DHT22;6200;48.144;11.424;2022-07-29T05:32:07;19.00;99.90
12276;DHT22;6200;48.144;11.424;2022-07-29T05:34:32;19.00;99.90
12276;DHT22;6200;48.144;11.424;2022-07-29T05:36:58;19.00;99.90
12276;DHT22;6200;48.144;11.424;2022-07-29T05:39:24;19.00;99.90
12276;DHT22;6200;48.144;11.424;2022-07-29T05:41:50;19.10;99.90
12276;DHT22;6200;48.144;11.424;2022-07-29T05:44:15;19.10;99.90
12276;DHT22;6200;48.144;11.424;2022-07-29T05:46:41;19.10;99.90
12276;DHT22;6200;48.144;11.424;2022-07-29T05:49:06;19.10;99.90
12276;DHT22;6200;48.144;11.424;2022-07-29T05:51:36;19.20;99.90
12276;DHT22;6200;48.144;11.424;2022-07-29T05:54:02;19.20;99.90
12276;DHT22;6200;48.144;11.424;2022-07-29T05:56:27;19.30;99.90
12276;DHT22;6200;48.144;11.424;2022-07-29T05:58:53;19.40;99.90
12276;DHT22;6200;48.144;11.424;2022-07-29T06:01:19;19.60;99.90
12276;DHT22;6200;48.144;11.424;2022-07-29T06:03:44;20.00;99.90
12276;DHT22;6200;48.144;11.424;2022-07-29T06:06:10;20.80;99.90
12276;DHT22;6200;48.144;11.424;2022-07-29T06:08:36;21.80;99.90
12276;DHT22;6200;48.144;11.424;2022-07-29T06:11:03;22.50;99.90
12276;DHT22;6200;48.144;11.424;2022-07-29T06:13:29;23.10;99.00
12276;DHT22;6200;48.144;11.424;2022-07-29T06:15:54;23.30;97.80
12276;DHT22;6200;48.144;11.424;2022-07-29T06:18:20;23.70;97.00
12276;DHT22;6200;48.144;11.424;2022-07-29T06:20:49;24.40;95.20
12276;DHT22;6200;48.144;11.424;2022-07-29T06:23:15;24.80;94.30
12276;DHT22;6200;48.144;11.424;2022-07-29T06:25:40;25.50;92.90
12276;DHT22;6200;48.144;11.424;2022-07-29T06:28:06;25.80;91.30
12276;DHT22;6200;48.144;11.424;2022-07-29T06:30:32;26.30;89.10
12276;DHT22;6200;48.144;11.424;2022-07-29T06:32:57;26.60;86.50
12276;DHT22;6200;48.144;11.424;2022-07-29T06:35:23;26.80;85.20
12276;DHT22;6200;48.144;11.424;2022-07-29T06:37:49;26.80;84.50
12276;DHT22;6200;48.144;11.424;2022-07-29T06:40:14;26.80;83.80
12276;DHT22;6200;48.144;11.424;2022-07-29T06:42:58;27.10;83.80
12276;DHT22;6200;48.144;11.424;2022-07-29T06:45:24;27.00;82.50
12276;DHT22;6200;48.144;11.424;2022-07-29T06:47:50;27.70;80.20
12276;DHT22;6200;48.144;11.424;2022-07-29T06:50:16;27.90;78.10
12276;DHT22;6200;48.144;11.424;2022-07-29T06:52:41;28.10;76.80
12276;DHT22;6200;48.144;11.424;2022-07-29T06:55:07;28.50;77.50
12276;DHT22;6200;48.144;11.424;2022-07-29T06:57:33;28.70;75.60
12276;DHT22;6200;48.144;11.424;2022-07-29T06:59:59;28.90;72.50
12276;DHT22;6200;48.144;11.424;2022-07-29T07:02:24;29.20;71.40
12276;DHT22;6200;48.144;11.424;2022-07-29T07:04:50;29.30;72.50
12276;DHT22;6200;48.144;11.424;2022-07-29T07:07:16;29.80;72.60
12276;DHT22;6200;48.144;11.424;2022-07-29T07:09:41;30.00;71.50
12276;DHT22;6200;48.144;11.424;2022-07-29T07:12:07;30.20;69.30
12276;DHT22;6200;48.144;11.424;2022-07-29T07:14:32;29.80;69.60
12276;DHT22;6200;48.144;11.424;2022-07-29T07:16:59;29.50;70.30
12276;DHT22;6200;48.144;11.424;2022-07-29T07:19:26;29.50;70.00
12276;DHT22;6200;48.144;11.424;2022-07-29T07:21:52;29.10;70.60
12276;DHT22;6200;48.144;11.424;2022-07-29T07:24:18;28.40;72.00
12276;DHT22;6200;48.144;11.424;2022-07-29T07:26:44;28.10;72.60
12276;DHT22;6200;48.144;11.424;2022-07-29T07:29:10;28.30;73.60
12276;DHT22;6200;48.144;11.424;2022-07-29T07:31:36;28.50;72.60
12276;DHT22;6200;48.144;11.424;2022-07-29T07:34:02;28.60;69.00
12276;DHT22;6200;48.144;11.424;2022-07-29T07:36:27;28.50;71.30
12276;DHT22;6200;48.144;11.424;2022-07-29T07:38:53;28.60;72.20
12276;DHT22;6200;48.144;11.424;2022-07-29T07:41:19;28.70;70.70
12276;DHT22;6200;48.144;11.424;2022-07-29T07:43:44;28.50;70.10
12276;DHT22;6200;48.144;11.424;2022-07-29T07:46:10;28.50;72.80
12276;DHT22;6200;48.144;11.424;2022-07-29T07:48:35;28.50;71.30
12276;DHT22;6200;48.144;11.424;2022-07-29T07:51:01;28.30;71.20
12276;DHT22;6200;48.144;11.424;2022-07-29T07:53:26;28.00;72.30
12276;DHT22;6200;48.144;11.424;2022-07-29T07:55:52;27.90;74.20
12276;DHT22;6200;48.144;11.424;2022-07-29T07:58:18;27.90;75.30
12276;DHT22;6200;48.144;11.424;2022-07-29T08:00:43;27.60;75.80
12276;DHT22;6200;48.144;11.424;2022-07-29T08:03:09;27.50;75.10
12276;DHT22;6200;48.144;11.424;2022-07-29T08:05:38;27.40;75.80
12276;DHT22;6200;48.144;11.424;2022-07-29T08:08:04;27.30;77.10
12276;DHT22;6200;48.144;11.424;2022-07-29T08:10:29;27.20;75.50
12276;DHT22;6200;48.144;11.424;2022-07-29T08:13:13;27.10;80.00
12276;DHT22;6200;48.144;11.424;2022-07-29T08:15:39;27.10;76.30
12276;DHT22;6200;48.144;11.424;2022-07-29T08:18:06;27.10;76.90
12276;DHT22;6200;48.144;11.424;2022-07-29T08:20:32;27.00;77.60
12276;DHT22;6200;48.144;11.424;2022-07-29T08:23:01;27.10;77.90
12276;DHT22;6200;48.144;11.424;2022-07-29T08:25:26;27.10;80.00
12276;DHT22;6200;48.144;11.424;2022-07-29T08:27:52;27.20;78.70
12276;DHT22;6200;48.144;11.424;2022-07-29T08:30:17;27.30;75.30
12276;DHT22;6200;48.144;11.424;2022-07-29T08:32:43;27.20;78.40
12276;DHT22;6200;48.144;11.424;2022-07-29T08:35:08;27.30;77.60
12276;DHT22;6200;48.144;11.424;2022-07-29T08:37:37;27.30;77.60
12276;DHT22;6200;48.144;11.424;2022-07-29T08:40:03;27.30;77.40
12276;DHT22;6200;48.144;11.424;2022-07-29T08:42:28;27.20;76.00
12276;DHT22;6200;48.144;11.424;2022-07-29T08:44:54;27.10;76.70
12276;DHT22;6200;48.144;11.424;2022-07-29T08:47:20;26.90;78.10
12276;DHT22;6200;48.144;11.424;2022-07-29T08:49:45;26.80;79.50
12276;DHT22;6200;48.144;11.424;2022-07-29T08:52:13;26.70;78.90
12276;DHT22;6200;48.144;11.424;2022-07-29T08:54:43;26.80;81.60
12276;DHT22;6200;48.144;11.424;2022-07-29T08:57:12;26.90;81.50
12276;DHT22;6200;48.144;11.424;2022-07-29T08:59:40;26.90;79.20
12276;DHT22;6200;48.144;11.424;2022-07-29T09:02:21;26.90;78.00
12276;DHT22;6200;48.144;11.424;2022-07-29T09:04:48;26.90;80.00
12276;DHT22;6200;48.144;11.424;2022-07-29T09:07:18;26.90;79.00
12276;DHT22;6200;48.144;11.424;2022-07-29T09:09:43;26.90;79.20
12276;DHT22;6200;48.144;11.424;2022-07-29T09:12:11;26.80;79.00
12276;DHT22;6200;48.144;11.424;2022-07-29T09:14:40;26.80;79.90
12276;DHT22;6200;48.144;11.424;2022-07-29T09:17:06;26.80;80.00
12276;DHT22;6200;48.144;11.424;2022-07-29T09:19:36;26.80;78.90
12276;DHT22;6200;48.144;11.424;2022-07-29T09:22:04;26.80;78.90
12276;DHT22;6200;48.144;11.424;2022-07-29T09:26:59;27.00;80.00
12276;DHT22;6200;48.144;11.424;2022-07-29T09:29:25;27.10;78.60
12276;DHT22;6200;48.144;11.424;2022-07-29T09:31:53;27.10;79.70
12276;DHT22;6200;48.144;11.424;2022-07-29T09:34:25;27.00;78.30
12276;DHT22;6200;48.144;11.424;2022-07-29T09:36:52;26.90;79.10
12276;DHT22;6200;48.144;11.424;2022-07-29T09:39:34;26.70;80.40
12276;DHT22;6200;48.144;11.424;2022-07-29T09:42:05;26.70;80.50
12276;DHT22;6200;48.144;11.424;2022-07-29T09:44:50;26.70;82.20
12276;DHT22;6200;48.144;11.424;2022-07-29T09:47:17;27.00;79.70
12276;DHT22;6200;48.144;11.424;2022-07-29T09:49:59;26.90;79.70
12276;DHT22;6200;48.144;11.424;2022-07-29T09:52:28;27.00;80.00
12276;DHT22;6200;48.144;11.424;2022-07-29T09:55:07;27.20;79.80
12276;DHT22;6200;48.144;11.424;2022-07-29T09:57:33;27.20;77.40
12276;DHT22;6200;48.144;11.424;2022-07-29T10:00:03;27.20;78.30
12276;DHT22;6200;48.144;11.424;2022-07-29T10:02:32;27.30;80.30
12276;DHT22;6200;48.144;11.424;2022-07-29T10:05:00;27.40;77.00
12276;DHT22;6200;48.144;11.424;2022-07-29T10:07:26;27.60;80.60
12276;DHT22;6200;48.144;11.424;2022-07-29T10:09:56;27.90;78.90
12276;DHT22;6200;48.144;11.424;2022-07-29T10:12:23;28.00;77.50
12276;DHT22;6200;48.144;11.424;2022-07-29T10:14:49;27.90;78.40
12276;DHT22;6200;48.144;11.424;2022-07-29T10:17:15;28.20;78.10
12276;DHT22;6200;48.144;11.424;2022-07-29T10:19:41;28.50;76.50
12276;DHT22;6200;48.144;11.424;2022-07-29T10:22:09;29.00;74.40
12276;DHT22;6200;48.144;11.424;2022-07-29T10:24:36;29.30;75.30
12276;DHT22;6200;48.144;11.424;2022-07-29T10:27:04;29.50;73.10
12276;DHT22;6200;48.144;11.424;2022-07-29T10:29:30;29.70;75.00
12276;DHT22;6200;48.144;11.424;2022-07-29T10:32:02;29.90;75.20
12276;DHT22;6200;48.144;11.424;2022-07-29T10:35:11;30.20;70.40
12276;DHT22;6200;48.144;11.424;2022-07-29T10:38:02;30.50;71.10
12276;DHT22;6200;48.144;11.424;2022-07-29T10:43:47;30.60;70.10
12276;DHT22;6200;48.144;11.424;2022-07-29T10:46:14;30.40;71.30
12276;DHT22;6200;48.144;11.424;2022-07-29T10:59:44;32.80;63.50
12276;DHT22;6200;48.144;11.424;2022-07-29T11:02:46;33.80;60.70
12276;DHT22;6200;48.144;11.424;2022-07-29T11:05:19;33.80;58.60
12276;DHT22;6200;48.144;11.424;2022-07-29T11:10:37;32.70;62.70
12276;DHT22;6200;48.144;11.424;2022-07-29T11:13:02;32.30;62.20
12276;DHT22;6200;48.144;11.424;2022-07-29T11:15:28;31.70;62.00
12276;DHT22;6200;48.144;11.424;2022-07-29T11:23:38;30.60;58.90
12276;DHT22;6200;48.144;11.424;2022-07-29T11:29:02;30.10;65.30
12276;DHT22;6200;48.144;11.424;2022-07-29T11:31:35;30.10;63.80
12276;DHT22;6200;48.144;11.424;2022-07-29T11:34:25;30.20;64.80
12276;DHT22;6200;48.144;11.424;2022-07-29T11:39:33;30.20;64.60
12276;DHT22;6200;48.144;11.424;2022-07-29T11:45:06;30.10;66.30
12276;DHT22;6200;48.144;11.424;2022-07-29T11:47:35;30.00;68.40
12276;DHT22;6200;48.144;11.424;2022-07-29T11:50:03;29.90;66.10
12276;DHT22;6200;48.144;11.424;2022-07-29T11:52:38;29.80;66.60
12276;DHT22;6200;48.144;11.424;2022-07-29T11:55:09;29.70;63.70
12276;DHT22;6200;48.144;11.424;2022-07-29T11:57:35;29.60;66.60
12276;DHT22;6200;48.144;11.424;2022-07-29T12:00:04;29.40;67.20
12276;DHT22;6200;48.144;11.424;2022-07-29T12:02:41;29.20;64.90
12276;DHT22;6200;48.144;11.424;2022-07-29T12:05:08;29.20;68.90
12276;DHT22;6200;48.144;11.424;2022-07-29T12:07:34;29.20;70.00
12276;DHT22;6200;48.144;11.424;2022-07-29T12:10:00;29.10;68.80
12276;DHT22;6200;48.144;11.424;2022-07-29T12:12:26;29.00;70.30
12276;DHT22;6200;48.144;11.424;2022-07-29T12:14:52;28.90;71.30
12276;DHT22;6200;48.144;11.424;2022-07-29T12:17:34;28.80;70.10
12276;DHT22;6200;48.144;11.424;2022-07-29T12:20:01;28.70;69.40
12276;DHT22;6200;48.144;11.424;2022-07-29T12:22:33;28.70;69.30
12276;DHT22;6200;48.144;11.424;2022-07-29T12:25:07;28.60;69.10
12276;DHT22;6200;48.144;11.424;2022-07-29T12:27:34;28.50;69.30
12276;DHT22;6200;48.144;11.424;2022-07-29T12:30:03;28.40;69.10
12276;DHT22;6200;48.144;11.424;2022-07-29T12:32:46;28.30;70.00
12276;DHT22;6200;48.144;11.424;2022-07-29T12:35:18;28.20;70.40
12276;DHT22;6200;48.144;11.424;2022-07-29T12:37:45;28.10;71.50
12276;DHT22;6200;48.144;11.424;2022-07-29T12:40:15;28.00;72.00
12276;DHT22;6200;48.144;11.424;2022-07-29T12:45:29;27.70;69.40
12276;DHT22;6200;48.144;11.424;2022-07-29T12:47:56;27.50;72.30
12276;DHT22;6200;48.144;11.424;2022-07-29T12:50:21;27.40;74.40
12276;DHT22;6200;48.144;11.424;2022-07-29T12:52:47;27.30;73.10
12276;DHT22;6200;48.144;11.424;2022-07-29T12:55:13;27.20;74.10
12276;DHT22;6200;48.144;11.424;2022-07-29T12:57:50;27.00;73.80
12276;DHT22;6200;48.144;11.424;2022-07-29T13:00:22;27.00;74.10
12276;DHT22;6200;48.144;11.424;2022-07-29T13:02:55;26.80;74.70
12276;DHT22;6200;48.144;11.424;2022-07-29T13:05:21;26.80;75.60
12276;DHT22;6200;48.144;11.424;2022-07-29T13:07:47;26.70;74.80
12276;DHT22;6200;48.144;11.424;2022-07-29T13:10:13;26.60;75.60
12276;DHT22;6200;48.144;11.424;2022-07-29T13:15:40;26.30;78.10
12276;DHT22;6200;48.144;11.424;2022-07-29T13:18:29;26.10;77.50
12276;DHT22;6200;48.144;11.424;2022-07-29T13:20:56;26.00;76.70
12276;DHT22;6200;48.144;11.424;2022-07-29T13:23:22;26.00;78.10
12276;DHT22;6200;48.144;11.424;2022-07-29T13:25:48;25.90;77.20
12276;DHT22;6200;48.144;11.424;2022-07-29T13:28:13;25.90;76.80
12276;DHT22;6200;48.144;11.424;2022-07-29T13:30:39;25.80;77.70
12276;DHT22;6200;48.144;11.424;2022-07-29T13:33:06;25.80;79.90
12276;DHT22;6200;48.144;11.424;2022-07-29T13:35:32;25.80;79.90
12276;DHT22;6200;48.144;11.424;2022-07-29T13:37:57;25.70;79.90
12276;DHT22;6200;48.144;11.424;2022-07-29T13:40:23;25.70;79.70
12276;DHT22;6200;48.144;11.424;2022-07-29T13:42:48;25.70;79.70
12276;DHT22;6200;48.144;11.424;2022-07-29T13:45:14;25.70;79.70
12276;DHT22;6200;48.144;11.424;2022-07-29T13:47:40;25.70;78.60
12276;DHT22;6200;48.144;11.424;2022-07-29T13:50:07;25.60;80.40
12276;DHT22;6200;48.144;11.424;2022-07-29T13:52:33;25.50;80.30
12276;DHT22;6200;48.144;11.424;2022-07-29T13:54:59;25.50;79.70
12276;DHT22;6200;48.144;11.424;2022-07-29T13:57:25;25.40;82.10
12276;DHT22;6200;48.144;11.424;2022-07-29T13:59:50;25.50;81.50
12276;DHT22;6200;48.144;11.424;2022-07-29T14:02:16;25.50;83.40
12276;DHT22;6200;48.144;11.424;2022-07-29T14:04:42;25.50;78.40
12276;DHT22;6200;48.144;11.424;2022-07-29T14:07:07;25.60;79.90
12276;DHT22;6200;48.144;11.424;2022-07-29T14:09:33;25.60;78.60
12276;DHT22;6200;48.144;11.424;2022-07-29T14:11:59;25.70;79.90
12276;DHT22;6200;48.144;11.424;2022-07-29T14:14:25;25.70;76.80
12276;DHT22;6200;48.144;11.424;2022-07-29T14:16:50;25.60;81.00
12276;DHT22;6200;48.144;11.424;2022-07-29T14:19:16;25.60;81.60
12276;DHT22;6200;48.144;11.424;2022-07-29T14:21:41;25.50;81.10
12276;DHT22;6200;48.144;11.424;2022-07-29T14:24:07;25.50;79.80
12276;DHT22;6200;48.144;11.424;2022-07-29T14:26:32;25.50;80.80
12276;DHT22;6200;48.144;11.424;2022-07-29T14:28:58;25.50;81.20
12276;DHT22;6200;48.144;11.424;2022-07-29T14:31:23;25.60;80.40
12276;DHT22;6200;48.144;11.424;2022-07-29T14:33:49;25.70;81.30
12276;DHT22;6200;48.144;11.424;2022-07-29T14:36:15;24.10;82.80
12276;DHT22;6200;48.144;11.424;2022-07-29T14:38:41;25.90;80.10
12276;DHT22;6200;48.144;11.424;2022-07-29T14:41:07;25.90;81.20
12276;DHT22;6200;48.144;11.424;2022-07-29T14:43:34;26.00;81.70
12276;DHT22;6200;48.144;11.424;2022-07-29T14:46:03;26.10;79.80
12276;DHT22;6200;48.144;11.424;2022-07-29T14:48:28;26.20;80.20
12276;DHT22;6200;48.144;11.424;2022-07-29T14:50:54;26.20;81.20
12276;DHT22;6200;48.144;11.424;2022-07-29T14:53:21;26.00;80.80
12276;DHT22;6200;48.144;11.424;2022-07-29T14:55:47;26.00;80.70
12276;DHT22;6200;48.144;11.424;2022-07-29T14:58:12;26.00;80.60
12276;DHT22;6200;48.144;11.424;2022-07-29T15:00:38;25.90;80.00
12276;DHT22;6200;48.144;11.424;2022-07-29T15:03:03;25.90;81.60
12276;DHT22;6200;48.144;11.424;2022-07-29T15:05:30;25.90;82.00
12276;DHT22;6200;48.144;11.424;2022-07-29T15:07:56;25.80;82.30
12276;DHT22;6200;48.144;11.424;2022-07-29T15:10:21;25.70;82.40
12276;DHT22;6200;48.144;11.424;2022-07-29T15:12:47;25.70;82.70
12276;DHT22;6200;48.144;11.424;2022-07-29T15:15:13;27.00;84.60
12276;DHT22;6200;48.144;11.424;2022-07-29T15:17:38;25.40;83.80
12276;DHT22;6200;48.144;11.424;2022-07-29T15:20:04;25.40;84.20
12276;DHT22;6200;48.144;11.424;2022-07-29T15:22:30;25.40;84.50
12276;DHT22;6200;48.144;11.424;2022-07-29T15:24:55;25.40;86.20
12276;DHT22;6200;48.144;11.424;2022-07-29T15:27:21;25.40;84.70
12276;DHT22;6200;48.144;11.424;2022-07-29T15:29:46;25.40;85.50
12276;DHT22;6200;48.144;11.424;2022-07-29T15:32:12;25.30;86.40
12276;DHT22;6200;48.144;11.424;2022-07-29T15:34:38;25.20;86.50
12276;DHT22;6200;48.144;11.424;2022-07-29T15:37:04;25.20;86.30
12276;DHT22;6200;48.144;11.424;2022-07-29T15:39:30;25.20;87.60
12276;DHT22;6200;48.144;11.424;2022-07-29T15:41:56;25.10;86.20
12276;DHT22;6200;48.144;11.424;2022-07-29T15:44:21;25.00;87.10
12276;DHT22;6200;48.144;11.424;2022-07-29T15:46:47;25.00;87.30
12276;DHT22;6200;48.144;11.424;2022-07-29T15:49:29;25.00;87.20
12276;DHT22;6200;48.144;11.424;2022-07-29T15:52:03;25.00;88.60
12276;DHT22;6200;48.144;11.424;2022-07-29T15:54:32;25.00;89.30
12276;DHT22;6200;48.144;11.424;2022-07-29T15:56:58;24.90;86.90
12276;DHT22;6200;48.144;11.424;2022-07-29T15:59:24;24.80;87.20
12276;DHT22;6200;48.144;11.424;2022-07-29T16:01:50;24.80;88.30
12276;DHT22;6200;48.144;11.424;2022-07-29T16:04:16;24.70;88.30
12276;DHT22;6200;48.144;11.424;2022-07-29T16:06:42;24.70;88.00
12276;DHT22;6200;48.144;11.424;2022-07-29T16:09:08;24.70;89.00
12276;DHT22;6200;48.144;11.424;2022-07-29T16:11:34;24.60;89.50
12276;DHT22;6200;48.144;11.424;2022-07-29T16:14:00;24.60;88.70
12276;DHT22;6200;48.144;11.424;2022-07-29T16:16:26;24.70;90.00
12276;DHT22;6200;48.144;11.424;2022-07-29T16:18:51;24.60;89.60
12276;DHT22;6200;48.144;11.424;2022-07-29T16:21:17;24.60;89.20
12276;DHT22;6200;48.144;11.424;2022-07-29T16:23:42;24.50;89.60